Accueil
METAR-TAF:

METAR-TAF

Aéroports :

Aéroport de Guernesey

Guernesey,

latitude: 49-26N, longitude: 002-36W, altitude: 102 m

Observation

Le bulletin a été fait il y a 32 minutes, à 19:50 UTC
Vent 5 kt de est
Température 5°C
Humidité 87%
Pression 1039 hPa
Visibilité 10 km ou plus
Quelques nuages à une hauteur de 2100 ft

METAR: EGJB 211950Z 08005KT 9999 FEW021 05/03 Q1039

Heure: 20:22 (20:22 UTC)

Prévision

Le bulletin a été fait il y a 3 heures et 19 minutes, à 17:03 UTC
Prévision valable du 21 à 18 UTC au 22 à 03 UTC
Vent 7 kt de est/nord-est
Visibilité 10 km ou plus
Quelques nuages à une hauteur de 2000 ft

TAF: EGJB 211703Z 2118/2203 07007KT 9999 FEW020

Observations et prévisions météorologiques de plus de 4000 aéroports (messages METAR et TAF).

Les stations disponibles sont représentées par des disques jaunes et rouges sur la carte.

Passer la souris dessus pour voir le nom de la station.

Cliquer dessus pour voir les observations et prévisions météorologiques.

Pour changer de carte: cliquez sur les boutons verts avec une croix noire pour zoomer, sur le bouton vert avec un tiret pour effectuer un zoom arrière, ou sur les flèches vertes pour les cartes adjacentes.


METAR-TAF: